sensor_id;sensor_type;location;lat;lon;timestamp;P1;durP1;ratioP1;P2;durP2;ratioP2
66688;SDS011;53587;59.318;18.084;2022-10-31T11:18:32;1.25;;;0.82;;
66688;SDS011;53587;59.318;18.084;2022-10-31T11:21:02;2.03;;;0.98;;
66688;SDS011;53587;59.318;18.084;2022-10-31T11:23:29;2.83;;;1.10;;
66688;SDS011;53587;59.318;18.084;2022-10-31T11:25:56;1.00;;;0.65;;
66688;SDS011;53587;59.318;18.084;2022-10-31T11:28:26;2.80;;;1.05;;
66688;SDS011;53587;59.318;18.084;2022-10-31T11:31:18;4.03;;;1.05;;
66688;SDS011;53587;59.318;18.084;2022-10-31T11:36:16;1.52;;;1.00;;
66688;SDS011;53587;59.318;18.084;2022-10-31T11:38:47;2.35;;;0.90;;
66688;SDS011;53587;59.318;18.084;2022-10-31T11:41:14;4.13;;;1.13;;
66688;SDS011;53587;59.318;18.084;2022-10-31T11:44:10;3.50;;;1.15;;
66688;SDS011;53587;59.318;18.084;2022-10-31T11:46:40;15.20;;;1.83;;
66688;SDS011;53587;59.318;18.084;2022-10-31T11:49:41;3.50;;;1.17;;
66688;SDS011;53587;59.318;18.084;2022-10-31T11:52:17;6.38;;;1.27;;
66688;SDS011;53587;59.318;18.084;2022-10-31T11:54:55;3.15;;;0.98;;
66688;SDS011;53587;59.318;18.084;2022-10-31T12:02:23;3.35;;;1.38;;
66688;SDS011;53587;59.318;18.084;2022-10-31T12:04:51;4.68;;;1.15;;
66688;SDS011;53587;59.318;18.084;2022-10-31T12:07:27;3.47;;;1.48;;
66688;SDS011;53587;59.318;18.084;2022-10-31T12:09:53;2.70;;;1.50;;
66688;SDS011;53587;59.318;18.084;2022-10-31T12:22:36;2.78;;;0.88;;
66688;SDS011;53587;59.318;18.084;2022-10-31T12:31:01;4.15;;;1.45;;
66688;SDS011;53587;59.318;18.084;2022-10-31T12:36:51;3.78;;;1.35;;
66688;SDS011;53587;59.318;18.084;2022-10-31T12:57:39;4.68;;;1.25;;
66688;SDS011;53587;59.318;18.084;2022-10-31T13:02:51;1.30;;;0.90;;
66688;SDS011;53587;59.318;18.084;2022-10-31T13:05:22;1.10;;;0.70;;
66688;SDS011;53587;59.318;18.084;2022-10-31T13:13:10;1.00;;;0.90;;
66688;SDS011;53587;59.318;18.084;2022-10-31T13:15:56;1.13;;;1.00;;
66688;SDS011;53587;59.318;18.084;2022-10-31T13:18:33;0.85;;;0.70;;
66688;SDS011;53587;59.318;18.084;2022-10-31T13:21:04;0.85;;;0.68;;
66688;SDS011;53587;59.318;18.084;2022-10-31T13:23:36;0.77;;;0.60;;
66688;SDS011;53587;59.318;18.084;2022-10-31T13:26:06;0.82;;;0.60;;
66688;SDS011;53587;59.318;18.084;2022-10-31T13:31:13;0.68;;;0.60;;
66688;SDS011;53587;59.318;18.084;2022-10-31T13:33:40;0.60;;;0.60;;
66688;SDS011;53587;59.318;18.084;2022-10-31T13:44:29;1.05;;;0.70;;
66688;SDS011;53587;59.318;18.084;2022-10-31T13:46:55;0.80;;;0.65;;
66688;SDS011;53587;59.318;18.084;2022-10-31T13:52:04;0.70;;;0.50;;
66688;SDS011;53587;59.318;18.084;2022-10-31T13:57:07;0.95;;;0.93;;
66688;SDS011;53587;59.318;18.084;2022-10-31T13:59:38;0.82;;;0.70;;
66688;SDS011;53587;59.318;18.084;2022-10-31T14:02:12;0.55;;;0.55;;
66688;SDS011;53587;59.318;18.084;2022-10-31T14:04:44;0.63;;;0.50;;
66688;SDS011;53587;59.318;18.084;2022-10-31T14:07:14;0.30;;;0.30;;
66688;SDS011;53587;59.318;18.084;2022-10-31T14:15:14;1.20;;;0.70;;
66688;SDS011;53587;59.318;18.084;2022-10-31T14:17:52;0.70;;;0.70;;
66688;SDS011;53587;59.318;18.084;2022-10-31T14:20:21;0.57;;;0.57;;
66688;SDS011;53587;59.318;18.084;2022-10-31T14:22:49;0.70;;;0.70;;
66688;SDS011;53587;59.318;18.084;2022-10-31T14:28:01;1.20;;;0.50;;
66688;SDS011;53587;59.318;18.084;2022-10-31T14:30:29;0.75;;;0.75;;
66688;SDS011;53587;59.318;18.084;2022-10-31T14:32:59;0.90;;;0.85;;
66688;SDS011;53587;59.318;18.084;2022-10-31T14:35:29;0.80;;;0.80;;
66688;SDS011;53587;59.318;18.084;2022-10-31T14:38:21;0.70;;;0.40;;
66688;SDS011;53587;59.318;18.084;2022-10-31T14:44:14;0.68;;;0.60;;
66688;SDS011;53587;59.318;18.084;2022-10-31T14:47:13;1.25;;;0.60;;
66688;SDS011;53587;59.318;18.084;2022-10-31T14:50:05;0.50;;;0.50;;
66688;SDS011;53587;59.318;18.084;2022-10-31T14:52:40;0.88;;;0.70;;
66688;SDS011;53587;59.318;18.084;2022-10-31T14:55:13;0.87;;;0.83;;
66688;SDS011;53587;59.318;18.084;2022-10-31T14:57:42;0.63;;;0.55;;
66688;SDS011;53587;59.318;18.084;2022-10-31T15:00:17;0.65;;;0.57;;
66688;SDS011;53587;59.318;18.084;2022-10-31T15:05:29;1.92;;;0.93;;
66688;SDS011;53587;59.318;18.084;2022-10-31T15:07:56;0.70;;;0.70;;
66688;SDS011;53587;59.318;18.084;2022-10-31T15:10:27;1.23;;;0.98;;
66688;SDS011;53587;59.318;18.084;2022-10-31T15:15:55;1.38;;;0.90;;
66688;SDS011;53587;59.318;18.084;2022-10-31T15:18:22;1.40;;;0.88;;
66688;SDS011;53587;59.318;18.084;2022-10-31T15:20:53;1.00;;;0.70;;
66688;SDS011;53587;59.318;18.084;2022-10-31T15:23:21;0.80;;;0.80;;
66688;SDS011;53587;59.318;18.084;2022-10-31T15:25:47;0.95;;;0.95;;
66688;SDS011;53587;59.318;18.084;2022-10-31T15:28:21;1.10;;;1.00;;
66688;SDS011;53587;59.318;18.084;2022-10-31T15:30:52;0.95;;;0.75;;
66688;SDS011;53587;59.318;18.084;2022-10-31T15:33:27;0.93;;;0.70;;
66688;SDS011;53587;59.318;18.084;2022-10-31T15:35:58;0.60;;;0.60;;
66688;SDS011;53587;59.318;18.084;2022-10-31T15:38:25;0.82;;;0.60;;
66688;SDS011;53587;59.318;18.084;2022-10-31T15:41:18;1.15;;;0.90;;
66688;SDS011;53587;59.318;18.084;2022-10-31T15:49:27;0.80;;;0.80;;
66688;SDS011;53587;59.318;18.084;2022-10-31T15:52:02;0.90;;;0.70;;
66688;SDS011;53587;59.318;18.084;2022-10-31T15:54:32;0.98;;;0.88;;
66688;SDS011;53587;59.318;18.084;2022-10-31T15:56:58;0.98;;;0.82;;
66688;SDS011;53587;59.318;18.084;2022-10-31T15:59:25;0.95;;;0.85;;
66688;SDS011;53587;59.318;18.084;2022-10-31T16:01:58;0.95;;;0.68;;
66688;SDS011;53587;59.318;18.084;2022-10-31T16:04:25;1.13;;;0.73;;
66688;SDS011;53587;59.318;18.084;2022-10-31T16:07:02;0.85;;;0.70;;
66688;SDS011;53587;59.318;18.084;2022-10-31T16:09:37;0.98;;;0.70;;
66688;SDS011;53587;59.318;18.084;2022-10-31T16:12:17;0.73;;;0.65;;
66688;SDS011;53587;59.318;18.084;2022-10-31T16:14:43;0.68;;;0.68;;
66688;SDS011;53587;59.318;18.084;2022-10-31T16:17:16;0.68;;;0.63;;
66688;SDS011;53587;59.318;18.084;2022-10-31T16:19:50;1.00;;;0.90;;
66688;SDS011;53587;59.318;18.084;2022-10-31T16:22:22;1.58;;;1.25;;
66688;SDS011;53587;59.318;18.084;2022-10-31T16:25:11;1.40;;;0.88;;
66688;SDS011;53587;59.318;18.084;2022-10-31T16:27:37;1.02;;;0.90;;
66688;SDS011;53587;59.318;18.084;2022-10-31T16:33:10;1.65;;;1.20;;
66688;SDS011;53587;59.318;18.084;2022-10-31T16:35:58;1.15;;;1.00;;
66688;SDS011;53587;59.318;18.084;2022-10-31T16:38:24;0.90;;;0.80;;
66688;SDS011;53587;59.318;18.084;2022-10-31T16:40:50;1.23;;;0.57;;
66688;SDS011;53587;59.318;18.084;2022-10-31T16:43:17;1.85;;;0.88;;
66688;SDS011;53587;59.318;18.084;2022-10-31T16:45:45;0.70;;;0.68;;
66688;SDS011;53587;59.318;18.084;2022-10-31T16:48:13;2.35;;;0.95;;
66688;SDS011;53587;59.318;18.084;2022-10-31T16:50:41;1.13;;;1.13;;
66688;SDS011;53587;59.318;18.084;2022-10-31T16:53:07;1.65;;;1.10;;
66688;SDS011;53587;59.318;18.084;2022-10-31T16:55:33;0.90;;;0.90;;
66688;SDS011;53587;59.318;18.084;2022-10-31T16:58:01;1.42;;;1.08;;
66688;SDS011;53587;59.318;18.084;2022-10-31T17:00:27;1.35;;;1.25;;
66688;SDS011;53587;59.318;18.084;2022-10-31T17:02:54;1.15;;;1.15;;
66688;SDS011;53587;59.318;18.084;2022-10-31T17:05:22;1.13;;;0.93;;
66688;SDS011;53587;59.318;18.084;2022-10-31T17:07:54;1.27;;;0.90;;
66688;SDS011;53587;59.318;18.084;2022-10-31T17:10:23;1.08;;;1.00;;
66688;SDS011;53587;59.318;18.084;2022-10-31T17:12:49;1.83;;;0.80;;
66688;SDS011;53587;59.318;18.084;2022-10-31T17:15:23;3.55;;;1.23;;
66688;SDS011;53587;59.318;18.084;2022-10-31T17:17:50;1.25;;;0.88;;
66688;SDS011;53587;59.318;18.084;2022-10-31T17:22:46;1.05;;;0.95;;
66688;SDS011;53587;59.318;18.084;2022-10-31T17:25:12;1.05;;;0.90;;
66688;SDS011;53587;59.318;18.084;2022-10-31T17:27:40;0.70;;;0.70;;
66688;SDS011;53587;59.318;18.084;2022-10-31T17:30:06;1.25;;;0.90;;
66688;SDS011;53587;59.318;18.084;2022-10-31T17:32:32;1.17;;;1.08;;
66688;SDS011;53587;59.318;18.084;2022-10-31T17:34:57;1.92;;;1.05;;
66688;SDS011;53587;59.318;18.084;2022-10-31T17:37:23;1.40;;;1.00;;
66688;SDS011;53587;59.318;18.084;2022-10-31T17:39:48;1.15;;;1.05;;
66688;SDS011;53587;59.318;18.084;2022-10-31T17:42:13;1.20;;;1.10;;
66688;SDS011;53587;59.318;18.084;2022-10-31T17:44:39;1.55;;;1.20;;
66688;SDS011;53587;59.318;18.084;2022-10-31T17:47:04;1.20;;;1.10;;
66688;SDS011;53587;59.318;18.084;2022-10-31T17:49:30;1.73;;;1.08;;
66688;SDS011;53587;59.318;18.084;2022-10-31T17:51:55;1.17;;;1.08;;
66688;SDS011;53587;59.318;18.084;2022-10-31T17:54:20;1.25;;;1.05;;
66688;SDS011;53587;59.318;18.084;2022-10-31T17:56:47;1.13;;;1.00;;
66688;SDS011;53587;59.318;18.084;2022-10-31T17:59:12;0.90;;;0.90;;
66688;SDS011;53587;59.318;18.084;2022-10-31T18:01:38;1.10;;;1.00;;
66688;SDS011;53587;59.318;18.084;2022-10-31T18:04:03;1.15;;;1.10;;
66688;SDS011;53587;59.318;18.084;2022-10-31T18:06:29;1.13;;;1.02;;
66688;SDS011;53587;59.318;18.084;2022-10-31T18:08:54;1.23;;;1.13;;
66688;SDS011;53587;59.318;18.084;2022-10-31T18:11:22;1.05;;;1.00;;
66688;SDS011;53587;59.318;18.084;2022-10-31T18:13:52;0.90;;;0.85;;
66688;SDS011;53587;59.318;18.084;2022-10-31T18:16:19;0.80;;;0.80;;
66688;SDS011;53587;59.318;18.084;2022-10-31T18:18:48;1.00;;;0.90;;
66688;SDS011;53587;59.318;18.084;2022-10-31T18:21:17;1.25;;;1.13;;
66688;SDS011;53587;59.318;18.084;2022-10-31T18:23:42;1.83;;;1.15;;
66688;SDS011;53587;59.318;18.084;2022-10-31T18:26:08;0.98;;;0.93;;
66688;SDS011;53587;59.318;18.084;2022-10-31T18:28:35;1.00;;;0.93;;
66688;SDS011;53587;59.318;18.084;2022-10-31T18:31:01;1.33;;;1.13;;
66688;SDS011;53587;59.318;18.084;2022-10-31T18:33:26;0.90;;;0.88;;
66688;SDS011;53587;59.318;18.084;2022-10-31T18:35:52;0.60;;;0.60;;
66688;SDS011;53587;59.318;18.084;2022-10-31T18:38:18;1.33;;;1.02;;
66688;SDS011;53587;59.318;18.084;2022-10-31T18:40:44;0.90;;;0.80;;
66688;SDS011;53587;59.318;18.084;2022-10-31T18:43:09;1.45;;;1.10;;
66688;SDS011;53587;59.318;18.084;2022-10-31T18:45:35;1.25;;;1.10;;
66688;SDS011;53587;59.318;18.084;2022-10-31T18:48:02;0.75;;;0.75;;
66688;SDS011;53587;59.318;18.084;2022-10-31T18:50:27;1.08;;;1.00;;
66688;SDS011;53587;59.318;18.084;2022-10-31T18:52:53;1.20;;;1.10;;
66688;SDS011;53587;59.318;18.084;2022-10-31T18:55:18;2.05;;;0.80;;
66688;SDS011;53587;59.318;18.084;2022-10-31T18:57:43;1.33;;;1.08;;
66688;SDS011;53587;59.318;18.084;2022-10-31T19:00:09;0.80;;;0.80;;
66688;SDS011;53587;59.318;18.084;2022-10-31T19:02:35;1.00;;;0.90;;
66688;SDS011;53587;59.318;18.084;2022-10-31T19:05:00;0.82;;;0.80;;
66688;SDS011;53587;59.318;18.084;2022-10-31T19:07:25;0.98;;;0.93;;
66688;SDS011;53587;59.318;18.084;2022-10-31T19:09:51;0.80;;;0.80;;
66688;SDS011;53587;59.318;18.084;2022-10-31T19:12:16;1.20;;;0.90;;
66688;SDS011;53587;59.318;18.084;2022-10-31T19:14:41;1.05;;;0.98;;
66688;SDS011;53587;59.318;18.084;2022-10-31T19:17:07;0.98;;;0.93;;
66688;SDS011;53587;59.318;18.084;2022-10-31T19:19:32;1.40;;;0.85;;
66688;SDS011;53587;59.318;18.084;2022-10-31T19:21:58;0.88;;;0.88;;
66688;SDS011;53587;59.318;18.084;2022-10-31T19:24:23;0.70;;;0.70;;
66688;SDS011;53587;59.318;18.084;2022-10-31T19:26:49;0.88;;;0.88;;
66688;SDS011;53587;59.318;18.084;2022-10-31T19:29:14;1.00;;;0.82;;
66688;SDS011;53587;59.318;18.084;2022-10-31T19:31:40;1.30;;;1.20;;
66688;SDS011;53587;59.318;18.084;2022-10-31T19:34:05;1.38;;;0.98;;
66688;SDS011;53587;59.318;18.084;2022-10-31T19:36:31;0.77;;;0.77;;
66688;SDS011;53587;59.318;18.084;2022-10-31T19:38:56;0.90;;;0.90;;
66688;SDS011;53587;59.318;18.084;2022-10-31T19:41:23;0.90;;;0.90;;
66688;SDS011;53587;59.318;18.084;2022-10-31T19:43:50;1.10;;;1.10;;
66688;SDS011;53587;59.318;18.084;2022-10-31T19:46:16;0.80;;;0.80;;
66688;SDS011;53587;59.318;18.084;2022-10-31T19:48:43;1.20;;;1.00;;
66688;SDS011;53587;59.318;18.084;2022-10-31T19:51:09;0.93;;;0.93;;
66688;SDS011;53587;59.318;18.084;2022-10-31T19:53:37;0.82;;;0.82;;
66688;SDS011;53587;59.318;18.084;2022-10-31T19:56:03;1.17;;;1.08;;
66688;SDS011;53587;59.318;18.084;2022-10-31T19:58:30;0.77;;;0.77;;
66688;SDS011;53587;59.318;18.084;2022-10-31T20:00:56;0.82;;;0.80;;
66688;SDS011;53587;59.318;18.084;2022-10-31T20:03:21;0.77;;;0.77;;
66688;SDS011;53587;59.318;18.084;2022-10-31T20:05:47;1.10;;;1.05;;
66688;SDS011;53587;59.318;18.084;2022-10-31T20:08:15;1.40;;;0.82;;
66688;SDS011;53587;59.318;18.084;2022-10-31T20:10:57;0.95;;;0.95;;
66688;SDS011;53587;59.318;18.084;2022-10-31T20:13:27;0.90;;;0.90;;
66688;SDS011;53587;59.318;18.084;2022-10-31T20:15:57;2.63;;;1.15;;
66688;SDS011;53587;59.318;18.084;2022-10-31T20:18:23;0.80;;;0.80;;
66688;SDS011;53587;59.318;18.084;2022-10-31T20:20:50;1.10;;;1.00;;
66688;SDS011;53587;59.318;18.084;2022-10-31T20:23:16;0.80;;;0.80;;
66688;SDS011;53587;59.318;18.084;2022-10-31T20:25:48;0.73;;;0.73;;
66688;SDS011;53587;59.318;18.084;2022-10-31T20:28:14;0.90;;;0.90;;
66688;SDS011;53587;59.318;18.084;2022-10-31T20:30:40;0.50;;;0.50;;
66688;SDS011;53587;59.318;18.084;2022-10-31T20:33:06;0.73;;;0.70;;
66688;SDS011;53587;59.318;18.084;2022-10-31T20:35:35;0.70;;;0.70;;
66688;SDS011;53587;59.318;18.084;2022-10-31T20:38:01;1.00;;;0.80;;
66688;SDS011;53587;59.318;18.084;2022-10-31T20:40:28;1.00;;;0.90;;
66688;SDS011;53587;59.318;18.084;2022-10-31T20:42:53;0.70;;;0.70;;
66688;SDS011;53587;59.318;18.084;2022-10-31T20:45:19;0.73;;;0.73;;
66688;SDS011;53587;59.318;18.084;2022-10-31T20:47:44;0.77;;;0.77;;
66688;SDS011;53587;59.318;18.084;2022-10-31T20:50:10;0.80;;;0.80;;
66688;SDS011;53587;59.318;18.084;2022-10-31T20:52:35;0.77;;;0.77;;
66688;SDS011;53587;59.318;18.084;2022-10-31T20:55:01;0.98;;;0.90;;
66688;SDS011;53587;59.318;18.084;2022-10-31T20:57:27;1.05;;;0.95;;
66688;SDS011;53587;59.318;18.084;2022-10-31T20:59:52;0.90;;;0.90;;
66688;SDS011;53587;59.318;18.084;2022-10-31T21:02:17;0.65;;;0.65;;
66688;SDS011;53587;59.318;18.084;2022-10-31T21:04:42;0.70;;;0.70;;
66688;SDS011;53587;59.318;18.084;2022-10-31T21:07:08;0.70;;;0.70;;
66688;SDS011;53587;59.318;18.084;2022-10-31T21:09:33;0.60;;;0.60;;
66688;SDS011;53587;59.318;18.084;2022-10-31T21:11:59;0.68;;;0.60;;
66688;SDS011;53587;59.318;18.084;2022-10-31T21:14:24;0.60;;;0.60;;
66688;SDS011;53587;59.318;18.084;2022-10-31T21:16:49;0.70;;;0.70;;
66688;SDS011;53587;59.318;18.084;2022-10-31T21:19:15;0.70;;;0.63;;
66688;SDS011;53587;59.318;18.084;2022-10-31T21:21:40;0.70;;;0.70;;
66688;SDS011;53587;59.318;18.084;2022-10-31T21:24:07;0.65;;;0.60;;
66688;SDS011;53587;59.318;18.084;2022-10-31T21:26:37;0.73;;;0.73;;
66688;SDS011;53587;59.318;18.084;2022-10-31T21:29:04;0.68;;;0.68;;
66688;SDS011;53587;59.318;18.084;2022-10-31T21:31:30;0.70;;;0.70;;
66688;SDS011;53587;59.318;18.084;2022-10-31T21:33:56;0.50;;;0.50;;
66688;SDS011;53587;59.318;18.084;2022-10-31T21:36:22;0.77;;;0.50;;
66688;SDS011;53587;59.318;18.084;2022-10-31T21:38:50;0.70;;;0.70;;
66688;SDS011;53587;59.318;18.084;2022-10-31T21:41:17;0.60;;;0.60;;
66688;SDS011;53587;59.318;18.084;2022-10-31T21:43:44;0.60;;;0.60;;
66688;SDS011;53587;59.318;18.084;2022-10-31T21:46:11;0.60;;;0.60;;
66688;SDS011;53587;59.318;18.084;2022-10-31T21:48:41;1.48;;;0.60;;
66688;SDS011;53587;59.318;18.084;2022-10-31T21:51:08;0.60;;;0.60;;
66688;SDS011;53587;59.318;18.084;2022-10-31T21:53:36;1.15;;;0.50;;
66688;SDS011;53587;59.318;18.084;2022-10-31T21:56:20;0.70;;;0.70;;
66688;SDS011;53587;59.318;18.084;2022-10-31T21:58:47;0.47;;;0.47;;
66688;SDS011;53587;59.318;18.084;2022-10-31T22:01:12;1.48;;;0.55;;
66688;SDS011;53587;59.318;18.084;2022-10-31T22:03:38;0.70;;;0.70;;
66688;SDS011;53587;59.318;18.084;2022-10-31T22:06:05;0.60;;;0.60;;
66688;SDS011;53587;59.318;18.084;2022-10-31T22:08:32;0.52;;;0.52;;
66688;SDS011;53587;59.318;18.084;2022-10-31T22:11:04;0.45;;;0.45;;
66688;SDS011;53587;59.318;18.084;2022-10-31T22:13:34;0.60;;;0.60;;
66688;SDS011;53587;59.318;18.084;2022-10-31T22:16:04;0.60;;;0.60;;
66688;SDS011;53587;59.318;18.084;2022-10-31T22:18:31;0.77;;;0.77;;
66688;SDS011;53587;59.318;18.084;2022-10-31T22:21:04;0.75;;;0.75;;
66688;SDS011;53587;59.318;18.084;2022-10-31T22:23:32;0.60;;;0.60;;
66688;SDS011;53587;59.318;18.084;2022-10-31T22:26:15;0.60;;;0.60;;
66688;SDS011;53587;59.318;18.084;2022-10-31T22:28:42;0.50;;;0.50;;
66688;SDS011;53587;59.318;18.084;2022-10-31T22:31:09;0.70;;;0.70;;
66688;SDS011;53587;59.318;18.084;2022-10-31T22:33:36;0.75;;;0.68;;
66688;SDS011;53587;59.318;18.084;2022-10-31T22:36:03;0.50;;;0.50;;
66688;SDS011;53587;59.318;18.084;2022-10-31T22:38:30;0.68;;;0.60;;
66688;SDS011;53587;59.318;18.084;2022-10-31T22:40:58;0.68;;;0.68;;
66688;SDS011;53587;59.318;18.084;2022-10-31T22:43:24;1.15;;;0.73;;
66688;SDS011;53587;59.318;18.084;2022-10-31T22:45:53;0.60;;;0.57;;
66688;SDS011;53587;59.318;18.084;2022-10-31T22:48:27;0.70;;;0.70;;
66688;SDS011;53587;59.318;18.084;2022-10-31T22:50:53;0.40;;;0.40;;
66688;SDS011;53587;59.318;18.084;2022-10-31T22:53:19;0.60;;;0.60;;
66688;SDS011;53587;59.318;18.084;2022-10-31T22:55:44;0.57;;;0.57;;
66688;SDS011;53587;59.318;18.084;2022-10-31T22:58:10;0.80;;;0.80;;
66688;SDS011;53587;59.318;18.084;2022-10-31T23:00:35;0.85;;;0.85;;
66688;SDS011;53587;59.318;18.084;2022-10-31T23:03:01;0.60;;;0.60;;
66688;SDS011;53587;59.318;18.084;2022-10-31T23:05:26;1.42;;;0.73;;
66688;SDS011;53587;59.318;18.084;2022-10-31T23:07:51;0.85;;;0.85;;
66688;SDS011;53587;59.318;18.084;2022-10-31T23:10:17;0.70;;;0.70;;
66688;SDS011;53587;59.318;18.084;2022-10-31T23:12:42;0.70;;;0.63;;
66688;SDS011;53587;59.318;18.084;2022-10-31T23:15:26;0.60;;;0.50;;
66688;SDS011;53587;59.318;18.084;2022-10-31T23:17:51;1.52;;;0.77;;
66688;SDS011;53587;59.318;18.084;2022-10-31T23:20:16;0.73;;;0.68;;
66688;SDS011;53587;59.318;18.084;2022-10-31T23:22:42;0.50;;;0.50;;
66688;SDS011;53587;59.318;18.084;2022-10-31T23:25:07;0.73;;;0.73;;
66688;SDS011;53587;59.318;18.084;2022-10-31T23:27:33;0.70;;;0.70;;
66688;SDS011;53587;59.318;18.084;2022-10-31T23:29:58;0.60;;;0.60;;
66688;SDS011;53587;59.318;18.084;2022-10-31T23:32:24;0.52;;;0.52;;
66688;SDS011;53587;59.318;18.084;2022-10-31T23:34:52;0.50;;;0.50;;
66688;SDS011;53587;59.318;18.084;2022-10-31T23:37:23;1.48;;;0.60;;
66688;SDS011;53587;59.318;18.084;2022-10-31T23:39:50;0.50;;;0.50;;
66688;SDS011;53587;59.318;18.084;2022-10-31T23:42:16;0.57;;;0.57;;
66688;SDS011;53587;59.318;18.084;2022-10-31T23:44:42;0.68;;;0.68;;
66688;SDS011;53587;59.318;18.084;2022-10-31T23:47:08;0.52;;;0.52;;
66688;SDS011;53587;59.318;18.084;2022-10-31T23:49:33;0.55;;;0.55;;
66688;SDS011;53587;59.318;18.084;2022-10-31T23:51:59;0.63;;;0.63;;
66688;SDS011;53587;59.318;18.084;2022-10-31T23:54:25;0.95;;;0.75;;
66688;SDS011;53587;59.318;18.084;2022-10-31T23:56:51;0.50;;;0.50;;
66688;SDS011;53587;59.318;18.084;2022-10-31T23:59:17;0.70;;;0.70;;
